Flag for France

Past Weather in 43°25'14.2"N, 6°45'49.2"E, France — Yesterday and Last 2 Weeks

Currently: 68 °F. Sunny. (Weather station: Cannes Airport, France). See more current weather

Past Weather in 43°25'14.2"N, 6°45'49.2"E — Graph

°F

43°25'14.2"N, 6°45'49.2"E Temperature Yesterday

Maximum temperature yesterday: 84 °F (at 2:00 pm)
Minimum temperature yesterday: 64 °F (at 5:30 am)
Average temperature yesterday: 77 °F

High & Low Weather Summary for the Past Weeks

 TemperatureHumidityPressure
High90 °F (Jun 18, 3:00 pm)94% (Jun 16, 5:00 am)30.15 "Hg (Jun 16, 5:00 am)
Low63 °F (Jun 11, 5:00 am)29% (Jun 19, 1:00 pm)29.80 "Hg (Jun 24, 5:30 pm)
Average76 °F65%29.98 "Hg
* Reported Jun 11 5:00 am — Jun 26 5:00 am, 43°25'14.2"N, 6°45'49.2"E. Weather by CustomWeather, © 2022

Note: Actual official high and low records may vary slightly from our data, if they occured in-between our weather recording intervals... More about our weather records

43°25'14.2"N, 6°45'49.2"E Weather History for the Previous 24 Hours

Scroll right to see more
 ConditionsComfort  
Time TempWeatherWind HumidityBarometerVisibility
5:00 am
Sun, Jun 26
70 °FPassing clouds.2 mph88%29.92 "HgN/A
4:30 am70 °FPassing clouds.2 mph88%29.92 "HgN/A
4:00 am70 °FClear.3 mph88%29.92 "Hg10 mi
3:30 am70 °FPassing clouds.5 mph88%29.92 "HgN/A
3:00 am70 °FPassing clouds.2 mph94%29.92 "HgN/A
1:30 am73 °FPassing clouds.2 mph83%29.92 "HgN/A
1:00 am73 °FOvercast.2 mph83%29.92 "HgN/A
12:30 am75 °FOvercast.No wind78%29.92 "HgN/A
12:00 am75 °FMostly cloudy.2 mph78%29.92 "HgN/A
11:30 pm
Sat, Jun 25
75 °FMostly cloudy.3 mph78%29.92 "HgN/A
11:00 pm75 °FMostly cloudy.2 mph83%29.92 "HgN/A
10:00 pm75 °FMostly cloudy.3 mph83%29.92 "HgN/A
9:00 pm77 °FOvercast.5 mph74%29.89 "HgN/A
8:30 pm81 °FOvercast.6 mph54%29.89 "HgN/A
8:00 pm82 °FOvercast.9 mph40%29.89 "HgN/A
7:00 pm84 °FSunny.8 mph48%29.89 "Hg10 mi
6:30 pm84 °FPartly sunny.8 mph55%29.89 "HgN/A
6:00 pm84 °FPassing clouds.10 mph55%29.89 "HgN/A
5:30 pm82 °FPassing clouds.10 mph58%29.89 "HgN/A
5:00 pm84 °FPassing clouds.8 mph55%29.89 "HgN/A
4:00 pm82 °FSunny.16 mph55%29.89 "Hg10 mi
3:30 pm82 °FSunny.17 mph55%29.89 "Hg10 mi
3:00 pm81 °FSunny.20 mph62%29.89 "Hg10 mi
2:30 pm84 °FPassing clouds.13 mph55%29.89 "HgN/A
2:00 pm84 °FSunny.14 mph51%29.89 "Hg10 mi
1:00 pm81 °FPassing clouds.13 mph62%29.92 "HgN/A
12:30 pm79 °FPassing clouds.12 mph58%29.92 "HgN/A
12:00 pm81 °FPassing clouds.9 mph54%29.92 "HgN/A
11:30 am79 °FPassing clouds.9 mph61%29.92 "HgN/A
11:00 am79 °FPassing clouds.9 mph58%29.92 "HgN/A
10:30 am81 °FSunny.7 mph51%29.92 "Hg10 mi
10:00 am79 °FPassing clouds.5 mph51%29.92 "HgN/A
9:30 am79 °FSunny.2 mph51%29.92 "Hg10 mi
9:00 am79 °FSunny.1 mph48%29.92 "Hg10 mi
8:30 am75 °FSunny.2 mph50%29.92 "Hg10 mi
8:00 am72 °FSunny.3 mph61%29.92 "Hg10 mi
7:00 am66 °FPassing clouds.5 mph68%29.92 "HgN/A
6:30 am64 °FSunny.2 mph68%29.89 "Hg10 mi
6:00 am64 °FSunny.2 mph68%29.89 "Hg10 mi
Weather by CustomWeather, © 2022

See weather overview